Blandford, MA (01008)

1:11 AM EDT on October 01, 2016 (GMT -0400)
GranStation | | Change Station

Elev 1266 ft 42.08 °N, 72.89 °W | Updated 4 minutes ago

Light Rain
Light Rain Mist
47.4 °F
Feels Like 47 °F
N
2.0
Wind Variable Wind from NNE
Gusts 5.0 mph

Today
High -- | Low -- °F
--% Chance of Precip.
Yesterday
High -- | Low -- °F
Precip. -- in
Pressure 30.34 in
Visibility 3.0 miles
Clouds Mostly Cloudy 700 ft
Overcast 1700 ft
Windchill 47 °F
Dew Point 47 °F
Humidity 98%
Rainfall 0.02 in
Snow Depth Not available.
6:49 AM 6:32 PM
New Moon, 0% visible
METAR KBAF 010453Z AUTO 01012KT 3SM -RA BR BKN007 OVC017 09/09 A3034 RMK AO2 SLP274 P0001 T00940089 401610094 TSNO
Pressure 30.34 in
Visibility 3.0 miles
Clouds Mostly Cloudy 700 ft
Overcast 1700 ft
Windchill 47 °F
Dew Point 47 °F
Humidity 98%
Rainfall 0.02 in
Snow Depth Not available.
6:49 AM 6:32 PM
New Moon, 0% visible
METAR KBAF 010453Z AUTO 01012KT 3SM -RA BR BKN007 OVC017 09/09 A3034 RMK AO2 SLP274 P0001 T00940089 401610094 TSNO

10-Day Weather Forecast

Almanac

Astronomy

Oct. 01, 2016 Rise Set
Actual Time
Civil Twilight
Nautical Twilight
Astronomical Twilight
Moon
Length of Visible Light
Length of Day
Tomorrow will be .
, % of the Moon is Illuminated

Today's Extremes

State Highs State Lows

Community

WunderPhotos

Upload Photos

1,942,894 photos uploaded!

WunderBlog® & News

Nearby

Air Quality

  Air Quality AQ Index Pollutant
Not available.

Snow Depth

Station Depth Elevation

Earthquake Activity

City Distance Mag. Time & Date
Minimum magnitude displayed is 2.5.

Coastal Water Temperatures

Place Temperature

Stations

Nearby Weather Stations

Station Location Temp. Windchill Dew Point Humidity Wind Precip. Elev Updated Type
                   

Watches & Warnings

There are currently no watches in effect.